createdAt,value
2018-01-30T00:00:34.681Z,58.80
2018-01-30T00:01:39.695Z,58.80
2018-01-30T00:02:44.479Z,58.80
2018-01-30T00:03:49.374Z,58.80
2018-01-30T00:04:54.106Z,58.70
2018-01-30T00:05:59.010Z,58.70
2018-01-30T00:07:03.884Z,58.70
2018-01-30T00:08:08.766Z,58.70
2018-01-30T00:09:14.306Z,58.70
2018-01-30T00:10:19.285Z,58.60
2018-01-30T00:11:24.046Z,58.70
2018-01-30T00:12:28.951Z,58.70
2018-01-30T00:13:33.874Z,58.70
2018-01-30T00:14:38.784Z,58.60
2018-01-30T00:15:43.741Z,58.60
2018-01-30T00:16:48.623Z,58.60
2018-01-30T00:17:53.559Z,58.60
2018-01-30T00:18:58.376Z,58.60
2018-01-30T00:20:03.200Z,58.60
2018-01-30T00:21:08.019Z,58.60
2018-01-30T00:22:12.920Z,58.60
2018-01-30T00:23:17.881Z,58.60
2018-01-30T00:24:22.863Z,58.60
2018-01-30T00:25:27.869Z,58.60
2018-01-30T00:26:32.676Z,58.60
2018-01-30T00:27:38.421Z,58.60
2018-01-30T00:28:43.357Z,58.50
2018-01-30T00:29:48.371Z,58.50
2018-01-30T00:30:53.355Z,58.50
2018-01-30T00:31:58.178Z,58.60
2018-01-30T00:33:03.199Z,58.60
2018-01-30T00:34:08.157Z,58.50
2018-01-30T00:35:13.000Z,58.50
2018-01-30T00:36:17.963Z,58.50
2018-01-30T00:37:22.947Z,58.40
2018-01-30T00:38:27.971Z,58.40
2018-01-30T00:39:32.897Z,58.40
2018-01-30T00:40:37.991Z,58.40
2018-01-30T00:41:43.177Z,58.40
2018-01-30T00:42:48.173Z,58.40
2018-01-30T00:43:53.276Z,58.40
2018-01-30T00:44:58.190Z,58.40
2018-01-30T00:46:03.461Z,58.40
2018-01-30T00:47:08.443Z,58.40
2018-01-30T00:48:13.263Z,58.40
2018-01-30T00:49:18.255Z,58.40
2018-01-30T00:50:23.164Z,58.40
2018-01-30T00:51:28.221Z,58.40
2018-01-30T00:52:33.020Z,58.40
2018-01-30T00:53:37.944Z,58.40
2018-01-30T00:54:42.807Z,58.40
2018-01-30T00:55:47.773Z,58.30
2018-01-30T00:56:52.642Z,58.40
2018-01-30T00:57:57.443Z,58.40
2018-01-30T00:59:02.384Z,58.40
2018-01-30T01:00:07.199Z,58.40
2018-01-30T01:01:11.925Z,58.40
2018-01-30T01:02:16.659Z,58.40
2018-01-30T01:03:21.556Z,58.30
2018-01-30T01:04:27.165Z,58.30
2018-01-30T01:05:32.088Z,58.30
2018-01-30T01:06:36.884Z,58.40
2018-01-30T01:07:41.718Z,58.30
2018-01-30T01:08:46.517Z,58.30
2018-01-30T01:09:51.529Z,58.30
2018-01-30T01:10:56.378Z,58.30
2018-01-30T01:12:01.298Z,58.40
2018-01-30T01:13:06.135Z,58.40
2018-01-30T01:14:11.006Z,58.40
2018-01-30T01:15:15.917Z,58.30
2018-01-30T01:16:20.827Z,58.40
2018-01-30T01:17:25.749Z,58.40
2018-01-30T01:18:30.656Z,58.40
2018-01-30T01:19:35.525Z,58.40
2018-01-30T01:20:40.426Z,58.40
2018-01-30T01:21:45.366Z,58.40
2018-01-30T01:22:50.702Z,58.40
2018-01-30T01:23:55.587Z,58.40
2018-01-30T01:25:00.542Z,58.40
2018-01-30T01:26:05.366Z,58.50
2018-01-30T01:27:10.333Z,58.50
2018-01-30T01:28:15.331Z,58.40
2018-01-30T01:29:20.354Z,58.40
2018-01-30T01:30:25.158Z,58.30
2018-01-30T01:31:30.012Z,58.30
2018-01-30T01:32:34.848Z,58.40
2018-01-30T01:33:39.673Z,58.30
2018-01-30T01:34:44.620Z,58.40
2018-01-30T01:35:49.454Z,58.30
2018-01-30T01:36:54.418Z,58.20
2018-01-30T01:37:59.419Z,58.20
2018-01-30T01:39:04.196Z,58.20
2018-01-30T01:40:09.173Z,58.20
2018-01-30T01:41:14.440Z,58.20
2018-01-30T01:42:19.370Z,58.20
2018-01-30T01:43:24.255Z,58.10
2018-01-30T01:44:29.144Z,58.10
2018-01-30T01:45:33.920Z,58.10
2018-01-30T01:46:38.883Z,58.10
2018-01-30T01:47:43.644Z,58.10
2018-01-30T01:48:48.618Z,58.10
2018-01-30T01:49:53.489Z,58.20
2018-01-30T01:50:58.461Z,58.10
2018-01-30T01:52:03.230Z,58.70
2018-01-30T01:53:08.094Z,58.10
2018-01-30T01:54:12.874Z,58.10
2018-01-30T01:55:17.661Z,58.10
2018-01-30T01:56:22.550Z,58.20
2018-01-30T01:57:27.300Z,58.10
2018-01-30T01:58:32.295Z,58.10
2018-01-30T01:59:37.934Z,58.10
2018-01-30T02:00:42.920Z,58.10
2018-01-30T02:01:47.815Z,58.00
2018-01-30T02:02:52.760Z,58.00
2018-01-30T02:03:57.588Z,58.00
2018-01-30T02:05:02.430Z,58.00
2018-01-30T02:06:07.368Z,58.00
2018-01-30T02:07:12.354Z,58.00
2018-01-30T02:08:17.185Z,58.00
2018-01-30T02:09:22.235Z,58.00
2018-01-30T02:10:27.138Z,58.00
2018-01-30T02:11:32.228Z,57.90
2018-01-30T02:12:37.098Z,57.90
2018-01-30T02:13:41.867Z,58.00
2018-01-30T02:14:46.815Z,58.00
2018-01-30T02:15:51.590Z,57.90
2018-01-30T02:16:56.385Z,57.90
2018-01-30T02:18:02.060Z,57.90
2018-01-30T02:19:06.979Z,57.90
2018-01-30T02:20:11.993Z,57.90
2018-01-30T02:21:17.876Z,57.90
2018-01-30T02:22:22.740Z,57.90
2018-01-30T02:23:27.603Z,58.00
2018-01-30T02:24:32.483Z,57.90
2018-01-30T02:25:37.255Z,58.00
2018-01-30T02:26:42.226Z,57.90
2018-01-30T02:27:47.197Z,57.90
2018-01-30T02:28:52.288Z,57.90
2018-01-30T02:29:57.283Z,57.90
2018-01-30T02:31:02.148Z,57.90
2018-01-30T02:32:07.245Z,57.90
2018-01-30T02:33:12.100Z,57.90
2018-01-30T02:34:17.001Z,57.90
2018-01-30T02:35:21.835Z,57.80
2018-01-30T02:36:27.124Z,57.90
2018-01-30T02:37:31.942Z,58.00
2018-01-30T02:38:37.034Z,58.00
2018-01-30T02:39:41.811Z,58.00
2018-01-30T02:40:46.798Z,58.00
2018-01-30T02:41:51.677Z,57.90
2018-01-30T02:42:56.492Z,57.90
2018-01-30T02:44:01.448Z,58.00
2018-01-30T02:45:06.522Z,58.00
2018-01-30T02:46:11.272Z,58.00
2018-01-30T02:47:16.176Z,58.00
2018-01-30T02:48:21.018Z,58.00
2018-01-30T02:49:25.880Z,58.00
2018-01-30T02:50:30.721Z,58.00
2018-01-30T02:51:35.483Z,58.10
2018-01-30T02:52:40.362Z,57.90
2018-01-30T02:53:45.236Z,57.90
2018-01-30T02:54:50.636Z,57.90
2018-01-30T02:55:55.653Z,57.90
2018-01-30T02:57:00.634Z,57.90
2018-01-30T02:58:05.604Z,57.90
2018-01-30T02:59:10.379Z,57.90
2018-01-30T03:00:15.284Z,57.80
2018-01-30T03:01:20.200Z,57.80
2018-01-30T03:02:25.057Z,57.90
2018-01-30T03:03:29.924Z,57.80
2018-01-30T03:04:34.681Z,57.80
2018-01-30T03:05:39.486Z,57.80
2018-01-30T03:06:44.271Z,57.80
2018-01-30T03:07:49.006Z,57.80
2018-01-30T03:08:53.783Z,57.70
2018-01-30T03:09:58.780Z,57.80
2018-01-30T03:11:03.642Z,57.70
2018-01-30T03:12:08.581Z,57.70
2018-01-30T03:13:14.252Z,57.70
2018-01-30T03:14:19.273Z,57.70
2018-01-30T03:15:24.270Z,57.70
2018-01-30T03:16:29.058Z,57.70
2018-01-30T03:17:33.775Z,57.70
2018-01-30T03:18:38.792Z,57.70
2018-01-30T03:19:43.691Z,57.70
2018-01-30T03:20:48.644Z,57.70
2018-01-30T03:21:53.539Z,57.60
2018-01-30T03:22:58.442Z,57.60
2018-01-30T03:24:03.440Z,57.70
2018-01-30T03:25:08.419Z,57.70
2018-01-30T03:26:13.218Z,57.60
2018-01-30T03:27:18.107Z,57.70
2018-01-30T03:28:23.092Z,57.70
2018-01-30T03:29:27.906Z,57.70
2018-01-30T03:30:32.680Z,57.60
2018-01-30T03:31:38.342Z,57.60
2018-01-30T03:32:43.153Z,57.60
2018-01-30T03:33:47.920Z,57.60
2018-01-30T03:34:52.783Z,57.60
2018-01-30T03:35:57.560Z,57.60
2018-01-30T03:37:02.549Z,57.60
2018-01-30T03:38:07.467Z,57.60
2018-01-30T03:39:12.415Z,57.50
2018-01-30T03:40:17.396Z,57.60
2018-01-30T03:41:22.230Z,57.60
2018-01-30T03:42:27.197Z,57.50
2018-01-30T03:43:32.108Z,57.50
2018-01-30T03:44:36.956Z,57.50
2018-01-30T03:45:41.881Z,57.50
2018-01-30T03:46:46.911Z,57.50
2018-01-30T03:47:51.789Z,57.50
2018-01-30T03:48:56.830Z,57.50
2018-01-30T03:50:02.364Z,57.50
2018-01-30T03:51:07.100Z,57.50
2018-01-30T03:52:11.901Z,57.50
2018-01-30T03:53:16.860Z,57.50
2018-01-30T03:54:21.805Z,57.50
2018-01-30T03:55:26.643Z,57.50
2018-01-30T03:56:31.520Z,57.50
2018-01-30T03:57:36.263Z,57.40
2018-01-30T03:58:41.069Z,57.50
2018-01-30T03:59:45.889Z,57.60
2018-01-30T04:00:50.738Z,57.50
2018-01-30T04:01:55.528Z,57.50
2018-01-30T04:03:00.290Z,57.50
2018-01-30T04:04:05.033Z,57.50
2018-01-30T04:05:09.836Z,57.50
2018-01-30T04:06:14.646Z,57.50
2018-01-30T04:07:19.611Z,57.60
2018-01-30T04:08:24.348Z,57.60
2018-01-30T04:09:29.187Z,57.60
2018-01-30T04:10:34.072Z,57.50
2018-01-30T04:11:38.956Z,57.60
2018-01-30T04:12:43.754Z,57.50
2018-01-30T04:13:48.627Z,57.50
2018-01-30T04:14:53.520Z,57.50
2018-01-30T04:15:58.428Z,57.50
2018-01-30T04:17:03.307Z,57.50
2018-01-30T04:18:08.259Z,57.50
2018-01-30T04:19:13.125Z,57.50
2018-01-30T04:20:18.957Z,57.50
2018-01-30T04:21:23.854Z,57.60
2018-01-30T04:22:28.834Z,57.50
2018-01-30T04:23:33.813Z,57.50
2018-01-30T04:24:38.725Z,57.50
2018-01-30T04:25:43.677Z,57.50
2018-01-30T04:26:48.652Z,57.50
2018-01-30T04:27:53.472Z,57.50
2018-01-30T04:28:58.446Z,57.50
2018-01-30T04:30:03.340Z,57.50
2018-01-30T04:31:08.444Z,57.50
2018-01-30T04:32:13.210Z,57.40
2018-01-30T04:33:18.147Z,57.40
2018-01-30T04:34:23.102Z,57.40
2018-01-30T04:35:28.036Z,57.40
2018-01-30T04:36:32.913Z,57.40
2018-01-30T04:37:37.961Z,57.40
2018-01-30T04:38:43.465Z,57.60
2018-01-30T04:39:48.500Z,57.30
2018-01-30T04:40:53.773Z,57.40
2018-01-30T04:41:58.673Z,57.40
2018-01-30T04:43:03.731Z,57.40
2018-01-30T04:44:08.519Z,57.30
2018-01-30T04:45:13.339Z,57.30
2018-01-30T04:46:18.219Z,57.30
2018-01-30T04:47:23.114Z,57.30
2018-01-30T04:48:28.006Z,57.30
2018-01-30T04:49:32.965Z,57.30
2018-01-30T04:50:37.790Z,57.30
2018-01-30T04:51:42.805Z,57.30
2018-01-30T04:52:47.676Z,57.40
2018-01-30T04:53:52.555Z,57.30
2018-01-30T04:54:57.542Z,58.00
2018-01-30T04:56:02.581Z,57.30
2018-01-30T04:57:08.067Z,57.30
2018-01-30T04:58:13.007Z,57.30
2018-01-30T04:59:17.987Z,57.40
2018-01-30T05:00:22.819Z,57.20
2018-01-30T05:01:27.708Z,57.30
2018-01-30T05:02:32.698Z,57.30
2018-01-30T05:03:37.426Z,57.30
2018-01-30T05:04:42.490Z,57.30
2018-01-30T05:05:47.440Z,57.20
2018-01-30T05:06:52.639Z,57.30
2018-01-30T05:07:58.094Z,57.30
2018-01-30T05:09:03.117Z,57.20
2018-01-30T05:10:08.139Z,57.20
2018-01-30T05:11:12.929Z,57.10
2018-01-30T05:12:17.824Z,57.20
2018-01-30T05:13:22.601Z,57.20
2018-01-30T05:14:27.653Z,57.20
2018-01-30T05:15:33.159Z,57.20
2018-01-30T05:16:37.947Z,57.10
2018-01-30T05:17:42.859Z,57.10
2018-01-30T05:18:47.916Z,57.20
2018-01-30T05:19:52.805Z,57.10
2018-01-30T05:20:57.800Z,57.20
2018-01-30T05:22:02.898Z,57.20
2018-01-30T05:23:07.933Z,57.20
2018-01-30T05:24:13.072Z,57.20
2018-01-30T05:25:18.103Z,57.20
2018-01-30T05:26:23.182Z,57.20
2018-01-30T05:27:28.053Z,57.20
2018-01-30T05:28:32.850Z,57.20
2018-01-30T05:29:37.732Z,57.20
2018-01-30T05:30:42.686Z,57.20
2018-01-30T05:31:47.644Z,57.20
2018-01-30T05:32:52.697Z,57.30
2018-01-30T05:33:57.915Z,57.20
2018-01-30T05:35:03.098Z,57.20
2018-01-30T05:36:08.224Z,57.30
2018-01-30T05:37:13.225Z,57.20
2018-01-30T05:38:18.285Z,57.30
2018-01-30T05:39:23.089Z,57.30
2018-01-30T05:40:28.021Z,57.30
2018-01-30T05:41:33.010Z,57.30
2018-01-30T05:42:37.974Z,57.30
2018-01-30T05:43:42.912Z,57.30
2018-01-30T05:44:47.733Z,57.30
2018-01-30T05:45:52.701Z,57.30
2018-01-30T05:46:57.460Z,57.30
2018-01-30T05:48:02.459Z,57.30
2018-01-30T05:49:07.438Z,57.30
2018-01-30T05:50:12.449Z,57.30
2018-01-30T05:51:17.278Z,57.30
2018-01-30T05:52:22.157Z,57.30
2018-01-30T05:53:27.050Z,57.20
2018-01-30T05:54:32.003Z,57.20
2018-01-30T05:55:36.895Z,57.20
2018-01-30T05:56:41.902Z,57.20
2018-01-30T05:57:46.876Z,57.20
2018-01-30T05:58:51.852Z,57.20
2018-01-30T05:59:59.729Z,57.20
2018-01-30T06:01:04.664Z,57.20
2018-01-30T06:02:09.571Z,57.20
2018-01-30T06:03:14.727Z,57.10
2018-01-30T06:04:19.777Z,57.10
2018-01-30T06:05:24.849Z,57.20
2018-01-30T06:06:29.828Z,57.10
2018-01-30T06:07:35.933Z,57.10
2018-01-30T06:08:40.921Z,57.20
2018-01-30T06:09:45.839Z,57.20
2018-01-30T06:10:51.016Z,57.20
2018-01-30T06:11:56.142Z,57.20
2018-01-30T06:13:01.109Z,57.20
2018-01-30T06:14:06.081Z,57.10
2018-01-30T06:15:11.103Z,57.10
2018-01-30T06:16:16.117Z,57.10
2018-01-30T06:17:20.890Z,57.10
2018-01-30T06:18:25.828Z,57.10
2018-01-30T06:19:30.842Z,57.10
2018-01-30T06:20:35.646Z,57.30
2018-01-30T06:21:40.504Z,57.10
2018-01-30T06:22:45.513Z,57.10
2018-01-30T06:23:50.380Z,57.10
2018-01-30T06:24:55.155Z,57.10
2018-01-30T06:26:00.889Z,57.10
2018-01-30T06:27:05.870Z,57.10
2018-01-30T06:28:11.051Z,57.10
2018-01-30T06:29:16.251Z,57.10
2018-01-30T06:30:21.171Z,57.80
2018-01-30T06:31:26.177Z,57.20
2018-01-30T06:32:31.046Z,57.20
2018-01-30T06:33:35.982Z,54.80
2018-01-30T06:34:41.181Z,52.40
2018-01-30T06:35:46.328Z,51.30
2018-01-30T06:36:51.262Z,50.90
2018-01-30T06:37:56.153Z,49.30
2018-01-30T06:39:01.003Z,47.50
2018-01-30T06:40:05.928Z,48.00
2018-01-30T06:41:10.782Z,47.80
2018-01-30T06:42:16.176Z,48.00
2018-01-30T06:43:21.101Z,48.10
2018-01-30T06:44:26.556Z,47.50
2018-01-30T06:45:32.131Z,46.80
2018-01-30T06:46:36.944Z,46.80
2018-01-30T06:47:41.831Z,46.70
2018-01-30T06:48:46.580Z,46.80
2018-01-30T06:49:51.342Z,47.60
2018-01-30T06:50:56.150Z,48.20
2018-01-30T06:52:00.994Z,48.40
2018-01-30T06:53:05.891Z,48.30
2018-01-30T06:54:10.797Z,48.30
2018-01-30T06:55:15.632Z,48.30
2018-01-30T06:56:21.780Z,48.20
2018-01-30T06:57:26.718Z,48.50
2018-01-30T06:58:31.559Z,48.80
2018-01-30T06:59:36.549Z,48.90
2018-01-30T07:00:41.533Z,47.70
2018-01-30T07:01:46.345Z,47.40
2018-01-30T07:02:51.384Z,47.50
2018-01-30T07:03:56.339Z,48.30
2018-01-30T07:05:01.416Z,47.80
2018-01-30T07:06:06.377Z,47.80
2018-01-30T07:07:11.149Z,47.80
2018-01-30T07:08:16.041Z,47.80
2018-01-30T07:09:21.205Z,47.80
2018-01-30T07:10:26.149Z,48.10
2018-01-30T07:11:31.266Z,49.00
2018-01-30T07:12:36.186Z,50.30
2018-01-30T07:13:41.035Z,50.80
2018-01-30T07:14:45.858Z,51.40
2018-01-30T07:15:50.934Z,51.50
2018-01-30T07:16:56.093Z,52.00
2018-01-30T07:18:01.134Z,52.50
2018-01-30T07:19:06.172Z,53.00
2018-01-30T07:20:11.233Z,53.40
2018-01-30T07:21:16.308Z,53.20
2018-01-30T07:22:21.173Z,53.00
2018-01-30T07:23:26.043Z,52.90
2018-01-30T07:24:30.839Z,52.70
2018-01-30T07:25:35.636Z,52.60
2018-01-30T07:26:40.394Z,52.40
2018-01-30T07:27:45.258Z,52.30
2018-01-30T07:28:50.128Z,52.40
2018-01-30T07:29:55.028Z,52.20
2018-01-30T07:30:59.938Z,52.30
2018-01-30T07:32:04.875Z,52.20
2018-01-30T07:33:10.062Z,52.10
2018-01-30T07:34:14.813Z,52.10
2018-01-30T07:35:19.627Z,52.10
2018-01-30T07:36:24.421Z,52.00
2018-01-30T07:37:29.298Z,52.10
2018-01-30T07:38:34.117Z,52.30
2018-01-30T07:39:39.134Z,52.20
2018-01-30T07:40:44.140Z,52.10
2018-01-30T07:41:48.994Z,52.30
2018-01-30T07:42:54.010Z,52.30
2018-01-30T07:43:58.971Z,52.40
2018-01-30T07:45:03.879Z,52.50
2018-01-30T07:46:08.685Z,52.50
2018-01-30T07:47:13.610Z,52.30
2018-01-30T07:48:18.543Z,51.10
2018-01-30T07:49:23.374Z,50.80
2018-01-30T07:50:28.162Z,50.90
2018-01-30T07:51:33.011Z,51.00
2018-01-30T07:52:37.893Z,50.30
2018-01-30T07:53:42.856Z,50.00
2018-01-30T07:54:47.805Z,49.60
2018-01-30T07:55:52.748Z,49.30
2018-01-30T07:56:57.653Z,49.20
2018-01-30T07:58:02.669Z,49.20
2018-01-30T07:59:07.655Z,49.30
2018-01-30T08:00:12.637Z,49.40
2018-01-30T08:01:17.595Z,49.70
2018-01-30T08:02:22.375Z,49.80
2018-01-30T08:03:27.321Z,49.90
2018-01-30T08:04:32.156Z,50.00
2018-01-30T08:05:37.101Z,50.00
2018-01-30T08:06:41.854Z,50.10
2018-01-30T08:07:46.722Z,50.20
2018-01-30T08:08:51.710Z,50.40
2018-01-30T08:09:56.491Z,50.50
2018-01-30T08:11:01.509Z,50.50
2018-01-30T08:12:06.495Z,50.70
2018-01-30T08:13:11.479Z,51.30
2018-01-30T08:14:16.369Z,50.80
2018-01-30T08:15:21.315Z,51.00
2018-01-30T08:16:26.230Z,51.20
2018-01-30T08:17:31.284Z,51.50
2018-01-30T08:18:36.201Z,51.60
2018-01-30T08:19:41.191Z,51.70
2018-01-30T08:20:46.243Z,51.80
2018-01-30T08:21:51.068Z,52.10
2018-01-30T08:22:56.003Z,52.20
2018-01-30T08:24:00.790Z,52.30
2018-01-30T08:25:05.787Z,52.40
2018-01-30T08:26:10.785Z,52.50
2018-01-30T08:27:15.758Z,52.50
2018-01-30T08:28:20.651Z,52.60
2018-01-30T08:29:25.555Z,52.60
2018-01-30T08:30:30.453Z,52.70
2018-01-30T08:31:35.277Z,52.70
2018-01-30T08:32:40.167Z,52.80
2018-01-30T08:33:45.088Z,52.90
2018-01-30T08:34:49.917Z,53.00
2018-01-30T08:35:54.701Z,53.10
2018-01-30T08:36:59.459Z,53.10
2018-01-30T08:38:04.425Z,53.30
2018-01-30T08:39:09.281Z,53.30
2018-01-30T08:40:14.332Z,54.10
2018-01-30T08:41:19.121Z,53.50
2018-01-30T08:42:24.152Z,53.50
2018-01-30T08:43:29.266Z,53.70
2018-01-30T08:44:34.177Z,53.80
2018-01-30T08:45:39.131Z,53.90
2018-01-30T08:46:44.120Z,54.10
2018-01-30T08:47:48.955Z,54.20
2018-01-30T08:48:53.876Z,54.20
2018-01-30T08:49:58.647Z,54.20
2018-01-30T08:51:03.571Z,54.20
2018-01-30T08:52:08.386Z,54.20
2018-01-30T08:53:13.400Z,54.20
2018-01-30T08:54:18.420Z,54.30
2018-01-30T08:55:23.430Z,54.40
2018-01-30T08:56:28.332Z,54.50
2018-01-30T08:57:33.349Z,54.60
2018-01-30T08:58:38.145Z,54.60
2018-01-30T08:59:43.022Z,54.60
2018-01-30T09:00:47.980Z,54.90
2018-01-30T09:01:52.725Z,54.80
2018-01-30T09:02:57.611Z,54.90
2018-01-30T09:04:02.611Z,54.90
2018-01-30T09:05:07.542Z,55.00
2018-01-30T09:06:12.414Z,55.10
2018-01-30T09:07:17.353Z,55.10
2018-01-30T09:08:22.252Z,55.10
2018-01-30T09:09:27.209Z,55.10
2018-01-30T09:10:32.128Z,55.10
2018-01-30T09:11:37.065Z,55.20
2018-01-30T09:12:41.886Z,55.10
2018-01-30T09:13:46.709Z,55.20
2018-01-30T09:14:51.482Z,55.20
2018-01-30T09:15:56.313Z,55.20
2018-01-30T09:17:01.207Z,55.20
2018-01-30T09:18:06.176Z,55.30
2018-01-30T09:19:11.061Z,55.40
2018-01-30T09:20:16.122Z,55.20
2018-01-30T09:21:20.970Z,55.30
2018-01-30T09:22:25.894Z,55.30
2018-01-30T09:23:30.728Z,55.40
2018-01-30T09:24:35.641Z,55.40
2018-01-30T09:25:40.517Z,55.40
2018-01-30T09:26:45.271Z,55.40
2018-01-30T09:27:50.172Z,56.10
2018-01-30T09:28:54.973Z,55.50
2018-01-30T09:29:59.787Z,55.60
2018-01-30T09:31:04.628Z,55.40
2018-01-30T09:32:09.555Z,55.50
2018-01-30T09:33:14.370Z,55.60
2018-01-30T09:34:19.315Z,55.60
2018-01-30T09:35:24.233Z,55.60
2018-01-30T09:36:29.196Z,55.50
2018-01-30T09:37:34.088Z,55.50
2018-01-30T09:38:39.038Z,55.60
2018-01-30T09:39:43.925Z,55.60
2018-01-30T09:40:48.788Z,55.60
2018-01-30T09:41:53.722Z,55.60
2018-01-30T09:42:58.490Z,55.70
2018-01-30T09:44:03.387Z,55.70
2018-01-30T09:45:08.261Z,55.70
2018-01-30T09:46:13.096Z,55.80
2018-01-30T09:47:17.955Z,55.70
2018-01-30T09:48:22.949Z,55.80
2018-01-30T09:49:27.822Z,55.70
2018-01-30T09:50:32.558Z,55.70
2018-01-30T09:51:37.492Z,55.70
2018-01-30T09:52:42.424Z,55.70
2018-01-30T09:53:47.333Z,55.70
2018-01-30T09:54:52.156Z,55.70
2018-01-30T09:55:57.091Z,55.80
2018-01-30T09:57:01.814Z,55.80
2018-01-30T09:58:06.716Z,55.80
2018-01-30T09:59:11.500Z,55.80
2018-01-30T10:00:16.343Z,55.90
2018-01-30T10:01:21.244Z,55.80
2018-01-30T10:02:26.169Z,55.90
2018-01-30T10:03:30.963Z,56.50
2018-01-30T10:04:35.757Z,55.90
2018-01-30T10:05:40.679Z,55.90
2018-01-30T10:06:45.499Z,56.00
2018-01-30T10:07:50.343Z,55.90
2018-01-30T10:08:55.182Z,56.00
2018-01-30T10:10:00.078Z,56.60
2018-01-30T10:11:04.938Z,56.00
2018-01-30T10:12:09.870Z,56.00
2018-01-30T10:13:14.647Z,56.00
2018-01-30T10:14:19.486Z,56.00
2018-01-30T10:15:24.380Z,56.00
2018-01-30T10:16:29.177Z,56.00
2018-01-30T10:17:34.073Z,56.00
2018-01-30T10:18:39.029Z,56.00
2018-01-30T10:19:43.939Z,56.00
2018-01-30T10:20:48.694Z,56.00
2018-01-30T10:21:53.548Z,56.00
2018-01-30T10:22:58.383Z,55.90
2018-01-30T10:24:03.258Z,55.90
2018-01-30T10:25:08.109Z,55.90
2018-01-30T10:26:12.944Z,55.90
2018-01-30T10:27:17.877Z,56.00
2018-01-30T10:28:22.859Z,56.00
2018-01-30T10:29:27.754Z,56.00
2018-01-30T10:30:32.624Z,56.00
2018-01-30T10:31:37.458Z,56.00
2018-01-30T10:32:42.228Z,56.00
2018-01-30T10:33:46.976Z,56.10
2018-01-30T10:34:51.909Z,56.00
2018-01-30T10:35:56.699Z,56.00
2018-01-30T10:37:01.433Z,56.10
2018-01-30T10:38:06.280Z,56.10
2018-01-30T10:39:11.038Z,56.20
2018-01-30T10:40:15.955Z,56.20
2018-01-30T10:41:20.756Z,56.20
2018-01-30T10:42:25.690Z,56.30
2018-01-30T10:43:30.641Z,56.30
2018-01-30T10:44:35.460Z,56.30
2018-01-30T10:45:40.337Z,56.30
2018-01-30T10:46:45.073Z,56.30
2018-01-30T10:47:50.006Z,56.30
2018-01-30T10:48:54.812Z,56.30
2018-01-30T10:49:59.589Z,56.30
2018-01-30T10:51:04.528Z,56.30
2018-01-30T10:52:09.363Z,56.40
2018-01-30T10:53:14.193Z,56.40
2018-01-30T10:54:19.156Z,56.40
2018-01-30T10:55:24.032Z,56.40
2018-01-30T10:56:29.825Z,56.50
2018-01-30T10:57:34.678Z,56.60
2018-01-30T10:58:39.694Z,56.50
2018-01-30T10:59:44.623Z,56.60
2018-01-30T11:00:49.518Z,56.70
2018-01-30T11:01:54.481Z,56.70
2018-01-30T11:02:59.255Z,56.80
2018-01-30T11:04:04.127Z,57.00
2018-01-30T11:05:09.031Z,56.90
2018-01-30T11:06:13.896Z,56.90
2018-01-30T11:07:18.832Z,57.30
2018-01-30T11:08:23.622Z,57.20
2018-01-30T11:09:28.487Z,57.20
2018-01-30T11:10:33.308Z,57.20
2018-01-30T11:11:38.187Z,57.30
2018-01-30T11:12:43.106Z,57.40
2018-01-30T11:13:48.092Z,57.50
2018-01-30T11:14:53.082Z,57.50
2018-01-30T11:15:58.021Z,57.60
2018-01-30T11:17:03.072Z,57.60
2018-01-30T11:18:08.054Z,57.70
2018-01-30T11:19:12.958Z,57.80
2018-01-30T11:20:17.866Z,58.00
2018-01-30T11:21:22.777Z,58.10
2018-01-30T11:22:27.624Z,58.20
2018-01-30T11:23:32.521Z,58.20
2018-01-30T11:24:37.649Z,58.20
2018-01-30T11:25:43.261Z,58.40
2018-01-30T11:26:48.139Z,58.60
2018-01-30T11:27:53.248Z,59.00
2018-01-30T11:28:58.196Z,59.20
2018-01-30T11:30:03.242Z,59.40
2018-01-30T11:31:08.251Z,59.60
2018-01-30T11:32:13.184Z,60.00
2018-01-30T11:33:18.080Z,60.10
2018-01-30T11:34:22.987Z,60.30
2018-01-30T11:35:27.858Z,60.30
2018-01-30T11:36:32.629Z,60.30
2018-01-30T11:37:37.490Z,60.30
2018-01-30T11:38:42.398Z,60.50
2018-01-30T11:39:47.210Z,60.30
2018-01-30T11:40:52.150Z,60.20
2018-01-30T11:41:57.026Z,60.10
2018-01-30T11:43:01.810Z,60.00
2018-01-30T11:44:06.764Z,59.90
2018-01-30T11:45:11.543Z,59.80
2018-01-30T11:46:16.407Z,59.70
2018-01-30T11:47:21.500Z,59.50
2018-01-30T11:48:26.458Z,59.40
2018-01-30T11:49:31.522Z,59.30
2018-01-30T11:50:36.391Z,59.20
2018-01-30T11:51:41.345Z,59.00
2018-01-30T11:52:46.256Z,59.00
2018-01-30T11:53:51.219Z,59.00
2018-01-30T11:54:56.125Z,59.10
2018-01-30T11:56:00.903Z,59.10
2018-01-30T11:57:05.876Z,59.20
2018-01-30T11:58:10.794Z,59.30
2018-01-30T11:59:15.793Z,59.60
2018-01-30T12:00:20.656Z,60.00
2018-01-30T12:01:25.471Z,60.10
2018-01-30T12:02:30.374Z,60.40
2018-01-30T12:03:35.387Z,60.60
2018-01-30T12:04:40.312Z,60.80
2018-01-30T12:05:45.619Z,61.00
2018-01-30T12:06:50.434Z,61.00
2018-01-30T12:07:55.375Z,61.20
2018-01-30T12:09:00.355Z,61.20
2018-01-30T12:10:05.308Z,61.30
2018-01-30T12:11:10.058Z,61.30
2018-01-30T12:12:14.857Z,61.30
2018-01-30T12:13:19.707Z,61.40
2018-01-30T12:14:24.579Z,61.30
2018-01-30T12:15:29.550Z,61.30
2018-01-30T12:16:34.432Z,61.20
2018-01-30T12:17:39.482Z,61.80
2018-01-30T12:18:44.417Z,61.00
2018-01-30T12:19:49.356Z,61.00
2018-01-30T12:20:54.338Z,60.90
2018-01-30T12:22:00.126Z,60.70
2018-01-30T12:23:05.209Z,60.60
2018-01-30T12:24:10.134Z,60.60
2018-01-30T12:25:14.983Z,60.40
2018-01-30T12:26:19.777Z,60.30
2018-01-30T12:27:24.739Z,60.20
2018-01-30T12:28:29.758Z,60.00
2018-01-30T12:29:35.717Z,59.90
2018-01-30T12:30:40.646Z,59.80
2018-01-30T12:31:45.418Z,59.80
2018-01-30T12:32:50.193Z,59.70
2018-01-30T12:33:55.148Z,59.70
2018-01-30T12:34:59.922Z,59.60
2018-01-30T12:36:04.701Z,59.60
2018-01-30T12:37:09.564Z,59.60
2018-01-30T12:38:14.529Z,59.50
2018-01-30T12:39:19.423Z,59.50
2018-01-30T12:40:24.223Z,59.60
2018-01-30T12:41:29.143Z,59.60
2018-01-30T12:42:34.169Z,59.60
2018-01-30T12:43:38.935Z,59.70
2018-01-30T12:44:43.701Z,59.80
2018-01-30T12:45:48.506Z,59.80
2018-01-30T12:46:53.396Z,59.70
2018-01-30T12:47:58.248Z,59.80
2018-01-30T12:49:03.124Z,59.80
2018-01-30T12:50:08.013Z,59.80
2018-01-30T12:51:12.986Z,59.80
2018-01-30T12:52:17.711Z,59.80
2018-01-30T12:53:22.734Z,59.80
2018-01-30T12:54:27.633Z,59.80
2018-01-30T12:55:32.552Z,59.80
2018-01-30T12:56:37.352Z,59.80
2018-01-30T12:57:42.282Z,59.80
2018-01-30T12:58:47.223Z,59.90
2018-01-30T12:59:52.146Z,59.80
2018-01-30T13:00:57.262Z,59.70
2018-01-30T13:02:02.206Z,59.70
2018-01-30T13:03:06.974Z,59.60
2018-01-30T13:04:11.826Z,59.50
2018-01-30T13:05:16.746Z,59.40
2018-01-30T13:06:21.599Z,59.40
2018-01-30T13:07:27.310Z,59.30
2018-01-30T13:08:32.275Z,59.30
2018-01-30T13:09:37.185Z,59.20
2018-01-30T13:10:42.086Z,59.30
2018-01-30T13:11:46.882Z,59.40
2018-01-30T13:12:51.775Z,59.30
2018-01-30T13:13:56.655Z,59.20
2018-01-30T13:15:01.745Z,59.20
2018-01-30T13:16:06.580Z,59.10
2018-01-30T13:17:11.838Z,59.00
2018-01-30T13:18:16.660Z,58.90
2018-01-30T13:19:21.614Z,58.90
2018-01-30T13:20:26.510Z,58.90
2018-01-30T13:21:31.812Z,58.90
2018-01-30T13:22:37.306Z,58.80
2018-01-30T13:23:42.279Z,58.90
2018-01-30T13:24:47.162Z,58.80
2018-01-30T13:25:51.967Z,59.60
2018-01-30T13:26:56.790Z,59.00
2018-01-30T13:28:01.554Z,59.00
2018-01-30T13:29:06.507Z,59.20
2018-01-30T13:30:11.397Z,59.30
2018-01-30T13:31:16.300Z,59.30
2018-01-30T13:32:21.232Z,59.30
2018-01-30T13:33:26.026Z,59.30
2018-01-30T13:34:30.852Z,59.40
2018-01-30T13:35:35.800Z,59.30
2018-01-30T13:36:40.649Z,59.30
2018-01-30T13:37:45.527Z,59.20
2018-01-30T13:38:50.351Z,59.20
2018-01-30T13:39:55.355Z,59.20
2018-01-30T13:41:00.228Z,59.10
2018-01-30T13:42:05.159Z,59.10
2018-01-30T13:43:10.084Z,59.10
2018-01-30T13:44:15.022Z,59.10
2018-01-30T13:45:20.008Z,59.00
2018-01-30T13:46:24.873Z,59.00
2018-01-30T13:47:29.722Z,59.00
2018-01-30T13:48:34.638Z,58.90
2018-01-30T13:49:39.437Z,58.90
2018-01-30T13:50:44.297Z,58.90
2018-01-30T13:51:49.064Z,58.90
2018-01-30T13:52:53.872Z,59.00
2018-01-30T13:53:58.662Z,59.00
2018-01-30T13:55:03.466Z,59.00
2018-01-30T13:56:08.385Z,59.00